Aérodrome :
LOGIN :

S'inscrire | Disclaimer

   EN    FR    IT 

 










Légende :    VFR   VFR Marginal   IFR   IFR Intensif   IFR Très Intensif
Visi : 
Plafond : 
>= 8 km
>= 3000ft
5 à 8 km
1000 à 3000 ft
1500m à 5 km
500 à 1000 ft
800 à 1500m
200 à 500 ft
< 800m
< 200 ft
Symboles :   Orages  Brouillard  Fortes neiges  Fortes précipitations  Vent > 20 kt
SIGMETs :   Divers  Orages  Givrage  Turbulence  Onde Orograph.  Cendres Volcan.






- Altitude de l'aérodrome : 308 ft
- Code IATA : POZ


EPPO - Poznan-Lawica

DERNIER METAR :
  • 020700Z 12010KT 6000 SCT041 08/07 Q1009

METARs EXPIRÉS :
  • 020630Z 12009KT 6000 FEW049 08/07 Q1009
  • 020600Z 12009KT 7000 BKN046 08/07 Q1008
  • 020530Z 11010KT 7000 OVC040 08/07 Q1008
  • 020500Z 11011KT 7000 OVC046 09/07 Q1008
  • 020430Z 13010KT 6000 OVC047 09/08 Q1008
  • 012100Z 13009KT 4700 -RA BR NSC 10/09 Q1009
  • 020400Z 11010KT 6000 FEW008 OVC041 09/08 Q1008
  • 020330Z 12012KT 5000 BR FEW007 OVC039 09/08 Q1008
  • 020300Z 12010KT 5000 BR BKN006 OVC040 09/08 Q1008
  • 020230Z 12009KT 4000 BR BKN006 OVC049 09/08 Q1008
  • 020200Z 11012KT 3700 BR OVC005 09/08 Q1008

TAF TAF EPPO
Valide du 02 à 06h jusqu'au 03 à 06h UTC


020530Z 0206/0306 13008KT 9999 BKN033
PROB30
TEMPO 0223/0306 4500 BR



MET'MAP, la Météo Aéronautique d'un coup d'oeil ! - Copyright ORBIFLY Décembre 2007 - Disclaimer

ORBIFLY MET'MAP TEAM :

Programmation & Développement : Alexandra Zaïnal
Sur une idée originale de : Baudouin d'Aumeries
Soutien technique & logistique : Manuel Goepfert
Assistance : Marc-Olivier Méhu




SOURCES & CREDITS :

   NOAA